createdAt,value
2023-05-03T00:00:51.860Z,8.07
2023-05-03T00:03:22.990Z,8.27
2023-05-03T00:05:50.570Z,7.13
2023-05-03T00:08:18.991Z,7.27
2023-05-03T00:10:46.310Z,7.30
2023-05-03T00:13:13.739Z,7.90
2023-05-03T00:15:41.131Z,7.70
2023-05-03T00:18:08.816Z,8.77
2023-05-03T00:20:37.778Z,6.67
2023-05-03T00:23:05.151Z,7.30
2023-05-03T00:25:32.692Z,8.40
2023-05-03T00:27:59.975Z,7.50
2023-05-03T00:34:02.618Z,7.97
2023-05-03T00:36:34.325Z,7.70
2023-05-03T00:39:03.456Z,7.70
2023-05-03T00:41:30.703Z,7.20
2023-05-03T00:43:58.012Z,7.57
2023-05-03T00:46:25.448Z,8.10
2023-05-03T00:48:53.456Z,7.10
2023-05-03T00:51:21.807Z,7.90
2023-05-03T00:53:49.117Z,7.37
2023-05-03T00:56:25.767Z,7.47
2023-05-03T00:58:54.187Z,7.47
2023-05-03T01:01:22.491Z,8.00
2023-05-03T01:03:50.711Z,7.40
2023-05-03T01:06:33.909Z,7.53
2023-05-03T01:09:01.394Z,7.27
2023-05-03T01:11:35.787Z,6.50
2023-05-03T01:14:11.407Z,8.90
2023-05-03T01:16:45.092Z,7.50
2023-05-03T01:19:20.183Z,7.47
2023-05-03T01:21:54.698Z,7.87
2023-05-03T01:24:24.932Z,7.40
2023-05-03T01:26:52.344Z,8.33
2023-05-03T01:29:19.957Z,8.30
2023-05-03T01:32:04.650Z,7.10
2023-05-03T01:34:36.670Z,7.63
2023-05-03T01:37:05.542Z,8.37
2023-05-03T01:39:41.586Z,8.00
2023-05-03T01:42:09.356Z,8.97
2023-05-03T01:44:37.506Z,8.30
2023-05-03T01:47:04.920Z,7.40
2023-05-03T01:49:34.680Z,7.90
2023-05-03T01:52:02.210Z,8.10
2023-05-03T01:54:29.596Z,8.13
2023-05-03T01:56:58.031Z,7.43
2023-05-03T01:59:25.508Z,7.80
2023-05-03T02:01:52.907Z,8.23
2023-05-03T02:04:20.347Z,8.70
2023-05-03T02:06:48.010Z,8.13
2023-05-03T02:09:15.416Z,7.83
2023-05-03T02:11:43.898Z,7.80
2023-05-03T02:14:11.354Z,7.70
2023-05-03T02:16:38.847Z,7.50
2023-05-03T02:19:07.962Z,7.00
2023-05-03T02:21:36.081Z,7.70
2023-05-03T02:24:03.873Z,8.60
2023-05-03T02:26:31.380Z,8.33
2023-05-03T02:28:58.656Z,7.43
2023-05-03T02:31:29.628Z,8.50
2023-05-03T02:33:58.652Z,8.30
2023-05-03T02:36:26.288Z,7.87
2023-05-03T02:38:53.610Z,7.97
2023-05-03T02:41:21.482Z,8.30
2023-05-03T02:43:49.511Z,7.93
2023-05-03T02:46:16.850Z,8.20
2023-05-03T02:48:44.207Z,8.20
2023-05-03T02:51:12.374Z,9.10
2023-05-03T02:53:39.822Z,8.00
2023-05-03T02:56:07.476Z,8.37
2023-05-03T02:58:34.965Z,7.50
2023-05-03T03:01:04.113Z,7.80
2023-05-03T03:03:31.658Z,8.20
2023-05-03T03:05:59.331Z,10.80
2023-05-03T03:08:26.918Z,8.10
2023-05-03T03:10:58.399Z,7.77
2023-05-03T03:13:25.843Z,7.63
2023-05-03T03:15:53.321Z,8.10
2023-05-03T03:18:21.022Z,8.97
2023-05-03T03:20:48.362Z,7.03
2023-05-03T03:23:15.729Z,8.53
2023-05-03T03:25:43.454Z,7.83
2023-05-03T03:28:13.553Z,7.80
2023-05-03T03:30:40.999Z,7.40
2023-05-03T03:33:19.025Z,8.80
2023-05-03T03:35:46.524Z,7.60
2023-05-03T03:38:14.013Z,7.90
2023-05-03T03:40:49.555Z,7.30
2023-05-03T03:43:18.248Z,7.13
2023-05-03T03:45:46.157Z,8.10
2023-05-03T03:48:15.786Z,8.00
2023-05-03T03:50:43.104Z,7.60
2023-05-03T03:53:12.542Z,7.80
2023-05-03T03:55:41.031Z,7.60
2023-05-03T03:58:09.286Z,7.53
2023-05-03T04:00:38.290Z,8.87
2023-05-03T04:03:12.379Z,8.00
2023-05-03T04:05:40.878Z,7.80
2023-05-03T04:08:08.497Z,8.43
2023-05-03T04:10:37.972Z,7.83
2023-05-03T04:13:05.909Z,7.43
2023-05-03T04:15:33.532Z,8.37
2023-05-03T04:18:03.348Z,7.00
2023-05-03T04:20:32.961Z,9.30
2023-05-03T04:23:01.427Z,7.97
2023-05-03T04:25:32.038Z,8.97
2023-05-03T04:28:04.582Z,8.27
2023-05-03T04:30:33.004Z,9.03
2023-05-03T04:33:01.699Z,8.83
2023-05-03T04:35:31.214Z,7.93
2023-05-03T04:38:01.429Z,8.70
2023-05-03T04:40:30.519Z,8.87
2023-05-03T04:43:02.692Z,8.37
2023-05-03T04:45:33.967Z,8.27
2023-05-03T04:48:02.591Z,8.80
2023-05-03T04:50:30.039Z,8.00
2023-05-03T04:52:57.247Z,7.87
2023-05-03T04:55:25.716Z,8.40
2023-05-03T04:57:55.665Z,8.30
2023-05-03T05:00:23.641Z,9.37
2023-05-03T05:02:57.798Z,8.40
2023-05-03T05:05:28.249Z,9.10
2023-05-03T05:07:55.903Z,8.37
2023-05-03T05:10:23.120Z,7.97
2023-05-03T05:12:50.496Z,8.00
2023-05-03T05:15:18.158Z,7.87
2023-05-03T05:17:46.172Z,8.60
2023-05-03T05:20:13.737Z,8.87
2023-05-03T05:22:46.119Z,8.20
2023-05-03T05:25:14.072Z,8.80
2023-05-03T05:27:41.919Z,8.70
2023-05-03T05:30:09.591Z,8.43
2023-05-03T05:32:39.693Z,8.57
2023-05-03T05:35:10.013Z,7.53
2023-05-03T05:37:38.422Z,8.80
2023-05-03T05:40:07.771Z,8.17
2023-05-03T05:42:42.408Z,12.13
2023-05-03T05:45:10.705Z,8.47
2023-05-03T05:47:39.226Z,7.77
2023-05-03T05:50:16.928Z,8.60
2023-05-03T05:52:46.468Z,7.00
2023-05-03T05:55:18.029Z,8.93
2023-05-03T05:57:46.111Z,7.97
2023-05-03T06:00:15.368Z,8.87
2023-05-03T06:02:44.755Z,8.53
2023-05-03T06:05:16.653Z,8.07
2023-05-03T06:07:44.072Z,7.63
2023-05-03T06:10:11.454Z,7.40
2023-05-03T06:12:41.010Z,7.37
2023-05-03T06:15:14.201Z,8.37
2023-05-03T06:17:41.651Z,8.33
2023-05-03T06:20:11.879Z,7.53
2023-05-03T06:22:40.316Z,8.00
2023-05-03T06:25:08.705Z,7.40
2023-05-03T06:27:38.357Z,7.03
2023-05-03T06:30:06.932Z,9.43
2023-05-03T06:32:35.904Z,7.33
2023-05-03T06:35:03.889Z,7.53
2023-05-03T06:37:31.211Z,7.03
2023-05-03T06:39:58.394Z,7.23
2023-05-03T06:42:25.931Z,7.07
2023-05-03T06:45:05.390Z,7.17
2023-05-03T06:47:32.838Z,7.57
2023-05-03T06:50:00.271Z,7.70
2023-05-03T06:52:27.642Z,7.37
2023-05-03T06:54:54.813Z,7.00
2023-05-03T06:57:22.799Z,7.20
2023-05-03T06:59:51.162Z,6.40
2023-05-03T07:02:19.154Z,7.80
2023-05-03T07:04:46.382Z,8.67
2023-05-03T07:07:13.610Z,9.00
2023-05-03T07:09:43.538Z,6.93
2023-05-03T07:12:12.413Z,7.57
2023-05-03T07:14:40.537Z,6.90
2023-05-03T07:17:07.862Z,8.90
2023-05-03T07:19:37.029Z,6.87
2023-05-03T07:22:04.291Z,7.47
2023-05-03T07:24:31.445Z,8.30
2023-05-03T07:26:58.922Z,7.33
2023-05-03T07:29:27.332Z,8.13
2023-05-03T07:31:54.537Z,8.30
2023-05-03T07:34:22.168Z,7.30
2023-05-03T07:36:49.355Z,7.30
2023-05-03T07:39:17.294Z,7.70
2023-05-03T07:41:44.559Z,9.77
2023-05-03T07:44:11.840Z,7.40
2023-05-03T07:46:40.139Z,7.30
2023-05-03T07:49:07.344Z,6.70
2023-05-03T07:51:39.952Z,8.93
2023-05-03T07:54:07.190Z,8.00
2023-05-03T07:56:34.357Z,9.20
2023-05-03T08:01:32.272Z,8.00
2023-05-03T08:03:59.880Z,7.10
2023-05-03T08:06:28.111Z,7.67
2023-05-03T08:08:55.671Z,7.70
2023-05-03T08:11:22.887Z,8.00
2023-05-03T08:13:50.138Z,7.60
2023-05-03T08:16:17.439Z,8.10
2023-05-03T08:18:44.778Z,7.90
2023-05-03T08:21:13.305Z,7.90
2023-05-03T08:23:40.623Z,7.40
2023-05-03T08:26:09.278Z,8.50
2023-05-03T08:28:36.496Z,7.27
2023-05-03T08:31:04.886Z,9.63
2023-05-03T08:33:32.252Z,7.77
2023-05-03T08:35:59.596Z,7.37
2023-05-03T08:38:27.248Z,8.27
2023-05-03T08:40:55.786Z,8.37
2023-05-03T08:43:25.566Z,7.40
2023-05-03T08:45:53.015Z,7.30
2023-05-03T08:48:20.683Z,7.93
2023-05-03T08:50:48.646Z,6.80
2023-05-03T08:53:15.849Z,7.70
2023-05-03T08:55:43.114Z,7.03
2023-05-03T08:58:12.453Z,7.93
2023-05-03T09:00:41.734Z,7.90
2023-05-03T09:03:09.061Z,8.00
2023-05-03T09:05:40.067Z,7.70
2023-05-03T09:08:09.096Z,7.87
2023-05-03T09:10:38.655Z,7.17
2023-05-03T09:13:09.849Z,7.70
2023-05-03T09:15:37.581Z,7.20
2023-05-03T09:18:12.617Z,6.87
2023-05-03T09:20:40.957Z,7.53
2023-05-03T09:23:10.335Z,7.47
2023-05-03T09:25:47.988Z,7.50
2023-05-03T09:28:15.966Z,7.57
2023-05-03T09:30:43.477Z,7.10
2023-05-03T09:33:21.929Z,7.13
2023-05-03T09:35:56.385Z,8.00
2023-05-03T09:38:28.100Z,6.73
2023-05-03T09:40:55.461Z,7.83
2023-05-03T09:43:24.346Z,8.13
2023-05-03T09:45:51.627Z,7.37
2023-05-03T09:48:23.373Z,7.27
2023-05-03T09:50:51.813Z,7.87
2023-05-03T09:53:21.921Z,7.40
2023-05-03T09:55:52.014Z,7.53
2023-05-03T09:58:20.592Z,6.97
2023-05-03T10:00:52.473Z,6.73
2023-05-03T10:03:25.748Z,7.67
2023-05-03T10:05:53.972Z,6.97
2023-05-03T10:08:28.282Z,7.47
2023-05-03T10:10:56.871Z,7.00
2023-05-03T10:13:24.603Z,6.80
2023-05-03T10:15:55.356Z,7.37
2023-05-03T10:18:25.996Z,7.87
2023-05-03T10:21:00.584Z,6.60
2023-05-03T10:23:28.034Z,8.27
2023-05-03T10:26:07.385Z,6.93
2023-05-03T10:28:34.954Z,8.67
2023-05-03T10:31:04.161Z,6.93
2023-05-03T10:33:32.604Z,7.70
2023-05-03T10:36:01.294Z,7.10
2023-05-03T10:38:29.377Z,6.87
2023-05-03T10:40:57.039Z,7.73
2023-05-03T10:43:30.553Z,7.23
2023-05-03T10:46:12.086Z,6.73
2023-05-03T10:48:41.071Z,7.57
2023-05-03T10:51:28.442Z,6.47
2023-05-03T10:53:55.783Z,7.70
2023-05-03T10:56:23.967Z,7.00
2023-05-03T10:58:55.910Z,7.80
2023-05-03T11:01:24.480Z,7.70
2023-05-03T11:04:12.206Z,7.17
2023-05-03T11:06:45.937Z,7.70
2023-05-03T11:09:14.599Z,7.10
2023-05-03T11:11:42.392Z,7.20
2023-05-03T11:14:10.550Z,8.23
2023-05-03T11:16:46.984Z,7.10
2023-05-03T11:19:15.582Z,6.43
2023-05-03T11:21:43.393Z,6.27
2023-05-03T11:24:11.755Z,6.80
2023-05-03T11:26:39.734Z,6.90
2023-05-03T11:29:07.030Z,6.07
2023-05-03T11:31:35.592Z,7.07
2023-05-03T11:34:03.040Z,6.70
2023-05-03T11:36:31.069Z,5.90
2023-05-03T11:38:58.818Z,6.87
2023-05-03T11:41:27.195Z,6.10
2023-05-03T11:44:03.971Z,6.50
2023-05-03T11:46:33.882Z,7.33
2023-05-03T11:49:02.693Z,5.83
2023-05-03T11:51:31.273Z,6.80
2023-05-03T11:54:06.842Z,6.80
2023-05-03T11:56:40.584Z,5.73
2023-05-03T11:59:10.408Z,6.53
2023-05-03T12:01:37.705Z,7.20
2023-05-03T12:04:06.717Z,6.33
2023-05-03T12:06:36.193Z,5.37
2023-05-03T12:09:05.625Z,6.30
2023-05-03T12:11:40.974Z,6.80
2023-05-03T12:14:10.608Z,5.57
2023-05-03T12:16:52.190Z,6.60
2023-05-03T12:19:32.892Z,5.40
2023-05-03T12:24:33.764Z,6.07
2023-05-03T12:27:02.735Z,6.17
2023-05-03T12:29:35.423Z,6.10
2023-05-03T12:32:04.221Z,7.20
2023-05-03T12:34:35.767Z,5.13
2023-05-03T12:37:06.011Z,5.23
2023-05-03T12:39:34.487Z,5.37
2023-05-03T12:42:08.095Z,5.33
2023-05-03T12:44:36.461Z,5.30
2023-05-03T12:47:04.662Z,6.03
2023-05-03T12:49:32.776Z,5.97
2023-05-03T12:54:33.736Z,5.40
2023-05-03T12:57:08.265Z,5.63
2023-05-03T12:59:42.333Z,6.23
2023-05-03T13:04:57.599Z,5.47
2023-05-03T13:07:29.608Z,6.10
2023-05-03T13:12:30.711Z,5.00
2023-05-03T13:14:58.134Z,6.20
2023-05-03T13:17:29.013Z,6.20
2023-05-03T13:19:56.581Z,6.63
2023-05-03T13:22:25.213Z,5.90
2023-05-03T13:24:52.415Z,5.20
2023-05-03T13:27:20.686Z,5.10
2023-05-03T13:29:49.423Z,5.47
2023-05-03T13:32:17.385Z,5.47
2023-05-03T13:34:44.864Z,4.93
2023-05-03T13:37:13.932Z,4.50
2023-05-03T13:39:41.132Z,4.83
2023-05-03T13:42:08.421Z,4.90
2023-05-03T13:44:37.746Z,4.70
2023-05-03T13:47:06.154Z,6.10
2023-05-03T13:49:35.037Z,4.73
2023-05-03T13:52:06.884Z,4.57
2023-05-03T13:54:35.691Z,5.27
2023-05-03T13:57:02.829Z,5.83
2023-05-03T13:59:30.138Z,5.53
2023-05-03T14:01:57.411Z,5.10
2023-05-03T14:04:25.452Z,4.40
2023-05-03T14:06:53.860Z,4.43
2023-05-03T14:09:22.525Z,5.47
2023-05-03T14:11:49.826Z,5.03
2023-05-03T14:14:18.037Z,4.60
2023-05-03T14:16:46.863Z,6.30
2023-05-03T14:19:18.058Z,4.53
2023-05-03T14:21:49.703Z,5.57
2023-05-03T14:24:16.927Z,4.97
2023-05-03T14:26:44.115Z,5.17
2023-05-03T14:29:11.919Z,4.13
2023-05-03T14:31:39.245Z,4.73
2023-05-03T14:34:06.709Z,7.60
2023-05-03T14:36:38.346Z,4.90
2023-05-03T14:39:09.561Z,5.17
2023-05-03T14:41:37.044Z,4.97
2023-05-03T14:44:04.683Z,4.83
2023-05-03T14:46:31.964Z,5.17
2023-05-03T14:49:01.623Z,4.90
2023-05-03T14:51:28.916Z,5.43
2023-05-03T14:53:56.288Z,5.07
2023-05-03T14:56:23.506Z,5.10
2023-05-03T14:58:51.161Z,4.73
2023-05-03T15:01:22.168Z,4.60
2023-05-03T15:03:49.978Z,4.97
2023-05-03T15:06:23.584Z,4.30
2023-05-03T15:08:52.248Z,4.70
2023-05-03T15:11:19.701Z,4.80
2023-05-03T15:13:47.798Z,3.80
2023-05-03T15:16:15.189Z,4.77
2023-05-03T15:18:48.002Z,4.80
2023-05-03T15:21:16.668Z,5.37
2023-05-03T15:23:43.961Z,4.93
2023-05-03T15:26:12.037Z,5.27
2023-05-03T15:28:39.215Z,5.33
2023-05-03T15:31:06.464Z,4.97
2023-05-03T15:33:41.616Z,5.07
2023-05-03T15:36:11.202Z,5.00
2023-05-03T15:38:38.965Z,4.37
2023-05-03T15:41:08.473Z,4.87
2023-05-03T15:43:35.929Z,5.07
2023-05-03T15:46:03.164Z,4.47
2023-05-03T15:48:30.951Z,4.10
2023-05-03T15:50:59.542Z,4.70
2023-05-03T15:53:27.199Z,4.07
2023-05-03T15:55:58.008Z,4.40
2023-05-03T15:58:28.673Z,4.00
2023-05-03T16:00:57.079Z,4.97
2023-05-03T16:03:24.535Z,4.93
2023-05-03T16:05:51.818Z,5.40
2023-05-03T16:08:20.756Z,4.57
2023-05-03T16:10:48.154Z,4.60
2023-05-03T16:13:16.891Z,5.23
2023-05-03T16:15:44.916Z,4.87
2023-05-03T16:18:12.511Z,5.67
2023-05-03T16:20:39.731Z,4.07
2023-05-03T16:23:06.958Z,4.57
2023-05-03T16:25:34.212Z,4.87
2023-05-03T16:28:04.714Z,5.00
2023-05-03T16:30:33.003Z,4.50
2023-05-03T16:33:04.045Z,5.20
2023-05-03T16:35:32.009Z,6.03
2023-05-03T16:37:59.936Z,4.90
2023-05-03T16:40:27.727Z,4.20
2023-05-03T16:42:56.265Z,3.60
2023-05-03T16:45:24.848Z,5.13
2023-05-03T16:47:57.630Z,5.03
2023-05-03T16:50:25.034Z,5.20
2023-05-03T16:52:52.745Z,5.20
2023-05-03T16:55:24.192Z,8.57
2023-05-03T16:57:51.531Z,5.87
2023-05-03T17:00:20.811Z,4.87
2023-05-03T17:02:51.919Z,6.50
2023-05-03T17:05:20.243Z,4.60
2023-05-03T17:07:47.451Z,7.47
2023-05-03T17:10:14.698Z,8.33
2023-05-03T17:12:43.047Z,4.83
2023-05-03T17:15:11.162Z,4.53
2023-05-03T17:17:38.683Z,5.80
2023-05-03T17:20:07.234Z,5.73
2023-05-03T17:22:34.921Z,6.83
2023-05-03T17:25:04.036Z,4.40
2023-05-03T17:27:31.246Z,6.07
2023-05-03T17:29:59.264Z,5.90
2023-05-03T17:32:27.773Z,6.70
2023-05-03T17:34:57.648Z,5.77
2023-05-03T17:37:25.217Z,4.90
2023-05-03T17:39:54.053Z,4.73
2023-05-03T17:42:21.827Z,4.00
2023-05-03T17:44:51.989Z,5.83
2023-05-03T17:47:20.806Z,4.80
2023-05-03T17:49:48.262Z,4.20
2023-05-03T17:52:15.442Z,3.87
2023-05-03T17:54:43.095Z,5.70
2023-05-03T17:57:10.467Z,7.23
2023-05-03T17:59:37.651Z,5.33
2023-05-03T18:02:05.370Z,4.30
2023-05-03T18:04:33.322Z,4.80
2023-05-03T18:07:00.524Z,6.17
2023-05-03T18:09:33.556Z,4.70
2023-05-03T18:12:05.340Z,5.90
2023-05-03T18:14:37.744Z,6.90
2023-05-03T18:17:05.000Z,5.20
2023-05-03T18:19:32.437Z,4.60
2023-05-03T18:21:59.710Z,5.30
2023-05-03T18:24:26.921Z,6.53
2023-05-03T18:26:55.019Z,5.50
2023-05-03T18:29:22.224Z,5.70
2023-05-03T18:31:52.665Z,7.30
2023-05-03T18:34:19.911Z,5.20
2023-05-03T18:36:47.996Z,4.40
2023-05-03T18:39:15.157Z,6.00
2023-05-03T18:41:42.762Z,9.57
2023-05-03T18:44:10.166Z,6.20
2023-05-03T18:46:37.570Z,5.40
2023-05-03T18:49:04.898Z,7.10
2023-05-03T18:51:32.529Z,6.60
2023-05-03T18:54:01.555Z,5.23
2023-05-03T18:56:33.888Z,6.50
2023-05-03T18:59:01.327Z,8.40
2023-05-03T19:01:30.059Z,8.77
2023-05-03T19:03:57.762Z,8.23
2023-05-03T19:06:25.434Z,12.77
2023-05-03T19:08:53.852Z,5.60
2023-05-03T19:11:21.073Z,4.47
2023-05-03T19:13:48.414Z,5.00
2023-05-03T19:16:16.338Z,4.40
2023-05-03T19:18:45.220Z,4.37
2023-05-03T19:21:12.574Z,4.40
2023-05-03T19:23:40.286Z,4.47
2023-05-03T19:26:07.535Z,4.03
2023-05-03T19:28:34.812Z,4.20
2023-05-03T19:31:05.830Z,4.60
2023-05-03T19:33:33.753Z,5.70
2023-05-03T19:36:06.282Z,5.27
2023-05-03T19:38:38.435Z,4.90
2023-05-03T19:41:25.659Z,5.20
2023-05-03T19:43:55.240Z,5.03
2023-05-03T19:46:22.828Z,5.17
2023-05-03T19:48:50.137Z,4.00
2023-05-03T19:51:17.589Z,5.00
2023-05-03T19:53:47.228Z,4.20
2023-05-03T19:56:18.298Z,4.67
2023-05-03T19:58:46.228Z,4.50
2023-05-03T20:01:14.807Z,4.40
2023-05-03T20:03:42.564Z,4.43
2023-05-03T20:06:10.007Z,4.90
2023-05-03T20:08:37.217Z,5.70
2023-05-03T20:11:06.578Z,4.93
2023-05-03T20:13:34.447Z,5.07
2023-05-03T20:16:04.863Z,4.60
2023-05-03T20:18:32.144Z,4.90
2023-05-03T20:20:59.347Z,5.30
2023-05-03T20:23:26.844Z,4.50
2023-05-03T20:25:54.066Z,4.30
2023-05-03T20:28:21.457Z,4.50
2023-05-03T20:30:48.706Z,4.70
2023-05-03T20:33:16.276Z,4.47
2023-05-03T20:35:43.546Z,4.20
2023-05-03T20:38:10.748Z,4.33
2023-05-03T20:40:38.292Z,4.10
2023-05-03T20:43:06.020Z,4.60
2023-05-03T20:45:33.402Z,4.70
2023-05-03T20:48:00.904Z,4.80
2023-05-03T20:50:28.206Z,5.57
2023-05-03T20:52:57.095Z,3.80
2023-05-03T20:55:25.421Z,4.17
2023-05-03T20:57:52.903Z,4.30
2023-05-03T21:00:22.012Z,4.53
2023-05-03T21:02:53.376Z,4.67
2023-05-03T21:05:21.825Z,4.47
2023-05-03T21:07:49.468Z,4.70
2023-05-03T21:10:16.769Z,4.33
2023-05-03T21:12:44.044Z,5.53
2023-05-03T21:15:11.511Z,4.23
2023-05-03T21:17:41.449Z,4.20
2023-05-03T21:20:08.971Z,4.60
2023-05-03T21:22:36.493Z,4.53
2023-05-03T21:25:04.465Z,4.73
2023-05-03T21:27:32.402Z,4.10
2023-05-03T21:30:00.147Z,4.20
2023-05-03T21:32:27.328Z,4.70
2023-05-03T21:34:54.528Z,5.10
2023-05-03T21:37:21.718Z,5.20
2023-05-03T21:40:00.440Z,5.77
2023-05-03T21:42:28.533Z,4.70
2023-05-03T21:44:55.680Z,4.40
2023-05-03T21:47:22.819Z,5.23
2023-05-03T21:49:51.499Z,4.03
2023-05-03T21:52:18.735Z,4.27
2023-05-03T21:54:47.340Z,5.67
2023-05-03T21:57:15.513Z,4.57
2023-05-03T21:59:44.042Z,4.50
2023-05-03T22:02:11.982Z,4.33
2023-05-03T22:04:39.392Z,4.50
2023-05-03T22:07:07.050Z,4.20
2023-05-03T22:09:34.323Z,4.43
2023-05-03T22:12:12.123Z,4.67
2023-05-03T22:14:49.356Z,4.53
2023-05-03T22:17:16.522Z,4.80
2023-05-03T22:19:43.799Z,4.40
2023-05-03T22:22:11.605Z,5.00
2023-05-03T22:24:41.214Z,4.13
2023-05-03T22:27:08.405Z,4.67
2023-05-03T22:29:36.242Z,4.07
2023-05-03T22:32:03.442Z,5.10
2023-05-03T22:34:30.666Z,4.53
2023-05-03T22:37:00.901Z,4.90
2023-05-03T22:39:28.122Z,5.43
2023-05-03T22:41:56.355Z,4.63
2023-05-03T22:44:23.535Z,4.87
2023-05-03T22:46:52.100Z,5.23
2023-05-03T22:49:19.281Z,5.03
2023-05-03T22:51:46.573Z,4.80
2023-05-03T22:54:13.782Z,4.97
2023-05-03T22:56:43.659Z,5.13
2023-05-03T22:59:11.793Z,5.30
2023-05-03T23:01:39.090Z,4.63
2023-05-03T23:04:06.377Z,5.10
2023-05-03T23:06:33.589Z,4.83
2023-05-03T23:09:01.638Z,4.50
2023-05-03T23:11:29.008Z,4.87
2023-05-03T23:13:57.558Z,4.50
2023-05-03T23:16:24.994Z,5.53
2023-05-03T23:18:54.888Z,4.40
2023-05-03T23:21:23.224Z,4.80
2023-05-03T23:23:50.557Z,5.20
2023-05-03T23:26:18.513Z,5.40
2023-05-03T23:28:48.563Z,5.10
2023-05-03T23:31:16.512Z,5.47
2023-05-03T23:33:44.389Z,5.07
2023-05-03T23:36:14.016Z,5.30
2023-05-03T23:38:42.772Z,4.73
2023-05-03T23:41:11.959Z,4.97
2023-05-03T23:43:40.323Z,5.40
2023-05-03T23:46:07.778Z,5.10
2023-05-03T23:48:35.691Z,4.90
2023-05-03T23:51:03.033Z,4.90
2023-05-03T23:53:30.487Z,4.90
2023-05-03T23:55:58.325Z,5.07
2023-05-03T23:58:25.874Z,5.10
